Terminal Aerodrome Forecast
Issued by NWS Atlanta, GA

Home | Current Version | Previous Version | Text Only | Print | Product List | Glossary On
Versions: 1 2 3 4 5 6 7 8 9 10 11 12 13 14 15 16 17
000
FTUS42 KFFC 231135
TAFCSG
TAF
KCSG 231135Z 2312/2412 18006KT P6SM BKN006
     FM231400 20009KT P6SM SCT006 BKN012
     FM231600 20010KT P6SM SCT025
     FM231800 20010KT P6SM BKN035 PROB30 2400/2406 5SM TSRA BKN035CB
     FM240600 23007KT P6SM BKN035
     FM241000 23006KT P6SM VCSH BKN008=

USA.gov is the U.S. government's official web portal to all federal, state and local government web resources and services.